createdAt,value
2022-09-14T00:01:30.125Z,-23786.97
2022-09-14T00:03:32.795Z,-23785.56
2022-09-14T00:05:36.293Z,-23786.03
2022-09-14T00:07:38.878Z,-23785.88
2022-09-14T00:09:41.663Z,-23783.22
2022-09-14T00:11:44.371Z,-23783.06
2022-09-14T00:13:48.200Z,-23784.78
2022-09-14T00:15:52.008Z,-23783.38
2022-09-14T00:17:55.997Z,-23786.97
2022-09-14T00:19:58.775Z,-23792.63
2022-09-14T00:22:01.460Z,-23785.41
2022-09-14T00:24:05.028Z,-23786.19
2022-09-14T00:26:10.535Z,-23786.34
2022-09-14T00:28:13.250Z,-23785.41
2022-09-14T00:30:15.940Z,-23789.97
2022-09-14T00:32:18.519Z,-23785.25
2022-09-14T00:34:22.556Z,-23781.97
2022-09-14T00:36:27.103Z,-23785.09
2022-09-14T00:38:29.692Z,-23785.72
2022-09-14T00:40:32.325Z,-23785.41
2022-09-14T00:42:34.919Z,-23784.47
2022-09-14T00:45:00.709Z,-23779.75
2022-09-14T00:47:03.786Z,-23779.75
2022-09-14T00:49:08.902Z,-23778.03
2022-09-14T00:51:13.074Z,-23776.31
2022-09-14T00:53:15.671Z,-23776.00
2022-09-14T00:55:22.690Z,-23777.56
2022-09-14T00:57:27.321Z,-23777.09
2022-09-14T00:59:32.332Z,-23778.81
2022-09-14T01:01:35.258Z,-23778.34
2022-09-14T01:03:38.338Z,-23779.44
2022-09-14T01:05:51.516Z,-23782.59
2022-09-14T01:08:05.424Z,-23781.19
2022-09-14T01:10:19.346Z,-23780.06
2022-09-14T01:12:30.809Z,-23779.28
2022-09-14T01:14:42.356Z,-23782.59
2022-09-14T01:16:52.936Z,-23788.56
2022-09-14T01:18:58.618Z,-23779.59
2022-09-14T01:21:05.037Z,-23777.88
2022-09-14T01:23:18.215Z,-23774.25
2022-09-14T01:25:42.938Z,-23775.19
2022-09-14T01:27:47.731Z,-23766.72
2022-09-14T01:29:57.309Z,-23756.50
2022-09-14T01:32:04.667Z,-23714.03
2022-09-14T01:34:13.171Z,-23716.22
2022-09-14T01:36:17.250Z,-23719.53
2022-09-14T01:38:23.268Z,-23724.09
2022-09-14T01:40:29.352Z,-23723.47
2022-09-14T01:42:34.356Z,-23720.97
2022-09-14T01:44:41.963Z,-23724.44
2022-09-14T01:46:49.520Z,-23725.06
2022-09-14T01:48:56.499Z,-23726.31
2022-09-14T01:51:02.396Z,-23726.00
2022-09-14T01:53:09.792Z,-23727.25
2022-09-14T01:55:17.530Z,-23729.78
2022-09-14T01:57:24.517Z,-23727.41
2022-09-14T01:59:30.270Z,-23729.47
2022-09-14T02:01:38.094Z,-23732.13
2022-09-14T02:03:47.342Z,-23734.19
2022-09-14T02:05:57.065Z,-23733.22
2022-09-14T02:07:59.927Z,-23734.03
2022-09-14T02:10:03.724Z,-23733.22
2022-09-14T02:12:07.055Z,-23733.06
2022-09-14T02:14:09.835Z,-23732.59
2022-09-14T02:16:13.210Z,-23731.81
2022-09-14T02:18:17.262Z,-23731.66
2022-09-14T02:20:28.880Z,-23732.13
2022-09-14T02:22:32.533Z,-23732.59
2022-09-14T02:24:35.963Z,-23732.91
2022-09-14T02:26:40.164Z,-23734.50
2022-09-14T02:28:43.018Z,-23730.41
2022-09-14T02:30:53.275Z,-23728.03
2022-09-14T02:33:08.329Z,-23728.50
2022-09-14T02:35:19.719Z,-23728.34
2022-09-14T02:37:31.534Z,-23728.50
2022-09-14T02:39:45.527Z,-23725.84
2022-09-14T02:41:52.401Z,-23725.53
2022-09-14T02:44:01.550Z,-23727.25
2022-09-14T02:46:15.109Z,-23727.25
2022-09-14T02:48:24.550Z,-23726.94
2022-09-14T02:50:36.828Z,-23729.13
2022-09-14T02:52:41.856Z,-23729.47
2022-09-14T02:54:51.270Z,-23726.47
2022-09-14T02:56:53.876Z,-23724.09
2022-09-14T02:58:57.121Z,-23723.47
2022-09-14T03:00:59.843Z,-23723.16
2022-09-14T03:03:02.513Z,-23725.53
2022-09-14T03:05:05.982Z,-23727.88
2022-09-14T03:07:10.133Z,-23729.78
2022-09-14T03:09:12.732Z,-23728.19
2022-09-14T03:11:15.350Z,-23724.59
2022-09-14T03:13:18.183Z,-23725.69
2022-09-14T03:15:20.983Z,-23724.25
2022-09-14T03:17:23.579Z,-23724.72
2022-09-14T03:19:26.236Z,-23725.06
2022-09-14T03:21:28.872Z,-23728.19
2022-09-14T03:23:36.950Z,-23725.69
2022-09-14T03:25:41.324Z,-23728.19
2022-09-14T03:27:44.934Z,-23728.81
2022-09-14T03:29:48.197Z,-23725.38
2022-09-14T03:31:50.823Z,-23728.03
2022-09-14T03:33:54.970Z,-23723.78
2022-09-14T03:35:57.580Z,-23724.44
2022-09-14T03:38:00.890Z,-23727.88
2022-09-14T03:40:06.111Z,-23724.44
2022-09-14T03:42:08.911Z,-23724.59
2022-09-14T03:44:11.692Z,-23723.78
2022-09-14T03:46:16.256Z,-23721.91
2022-09-14T03:48:18.889Z,-23722.53
2022-09-14T03:50:21.492Z,-23721.59
2022-09-14T03:52:24.064Z,-23721.44
2022-09-14T03:54:26.738Z,-23719.22
2022-09-14T03:56:30.880Z,-23720.00
2022-09-14T03:58:33.553Z,-23718.91
2022-09-14T04:00:36.190Z,-23719.22
2022-09-14T04:02:38.905Z,-23720.97
2022-09-14T04:04:41.497Z,-23718.13
2022-09-14T04:06:44.119Z,-23720.66
2022-09-14T04:08:47.837Z,-23719.69
2022-09-14T04:10:50.670Z,-23719.22
2022-09-14T04:12:54.738Z,-23717.50
2022-09-14T04:14:57.315Z,-23717.03
2022-09-14T04:17:00.083Z,-23717.19
2022-09-14T04:19:02.763Z,-23720.34
2022-09-14T04:21:08.644Z,-23721.91
2022-09-14T04:23:12.230Z,-23724.09
2022-09-14T04:25:14.863Z,-23719.88
2022-09-14T04:27:17.647Z,-23720.34
2022-09-14T04:29:21.615Z,-23718.75
2022-09-14T04:31:24.921Z,-23722.69
2022-09-14T04:33:30.919Z,-23717.19
2022-09-14T04:35:33.532Z,-23713.88
2022-09-14T04:37:36.136Z,-23715.91
2022-09-14T04:39:38.906Z,-23714.97
2022-09-14T04:41:41.663Z,-23715.59
2022-09-14T04:43:45.473Z,-23714.34
2022-09-14T04:45:49.783Z,-23710.09
2022-09-14T04:47:52.377Z,-23710.09
2022-09-14T04:49:55.014Z,-23711.50
2022-09-14T04:51:57.787Z,-23710.41
2022-09-14T04:54:02.091Z,-23713.25
2022-09-14T04:56:07.072Z,-23709.00
2022-09-14T04:58:09.665Z,-23708.53
2022-09-14T05:00:13.512Z,-23707.56
2022-09-14T05:02:17.566Z,-23708.38
2022-09-14T05:04:20.291Z,-23711.19
2022-09-14T05:06:24.943Z,-23711.50
2022-09-14T05:08:27.512Z,-22194.59
2022-09-14T05:10:30.123Z,-22356.56
2022-09-14T05:12:32.708Z,-18829.34
2022-09-14T05:14:35.305Z,-17199.94
2022-09-14T05:16:39.695Z,-15895.16
2022-09-14T05:18:44.573Z,-13610.22
2022-09-14T05:20:47.332Z,-11978.28
2022-09-14T05:22:51.160Z,-12305.25
2022-09-14T05:24:53.780Z,-11978.84
2022-09-14T05:27:00.233Z,-13938.56
2022-09-14T05:29:04.718Z,-14593.50
2022-09-14T05:31:09.278Z,-15901.38
2022-09-14T05:33:11.930Z,-19979.88
2022-09-14T05:35:16.156Z,-23726.47
2022-09-14T05:37:18.792Z,-23731.97
2022-09-14T05:39:23.407Z,-23737.63
2022-09-14T05:41:26.179Z,-23736.84
2022-09-14T05:43:30.284Z,-23741.09
2022-09-14T05:45:34.237Z,-23741.88
2022-09-14T05:47:39.163Z,-23742.97
2022-09-14T05:49:47.656Z,-23743.13
2022-09-14T05:51:51.623Z,-23744.25
2022-09-14T05:53:56.775Z,-23745.34
2022-09-14T05:56:03.812Z,-23747.06
2022-09-14T05:58:06.747Z,-23747.38
2022-09-14T06:00:10.769Z,-23749.91
2022-09-14T06:02:17.475Z,-23750.06
2022-09-14T06:04:20.634Z,-23752.09
2022-09-14T06:06:24.103Z,-23752.56
2022-09-14T06:08:28.241Z,-23755.88
2022-09-14T06:10:30.864Z,-23754.47
2022-09-14T06:12:33.511Z,-23756.81
2022-09-14T06:14:36.224Z,-23756.81
2022-09-14T06:16:38.855Z,-23761.84
2022-09-14T06:18:42.862Z,-23764.69
2022-09-14T06:20:51.218Z,-23762.47
2022-09-14T06:22:53.808Z,-23763.56
2022-09-14T06:24:57.811Z,-23765.16
2022-09-14T06:27:00.403Z,-23764.69
2022-09-14T06:29:04.137Z,-23765.16
2022-09-14T06:31:09.948Z,-23768.44
2022-09-14T06:33:12.611Z,-23772.22
2022-09-14T06:35:15.430Z,-23768.28
2022-09-14T06:37:18.053Z,-23768.13
2022-09-14T06:39:20.991Z,-23774.25
2022-09-14T06:41:29.018Z,-23775.03
2022-09-14T06:43:33.835Z,-23774.25
2022-09-14T06:45:37.338Z,-23771.91
2022-09-14T06:47:40.051Z,-23775.03
2022-09-14T06:49:42.642Z,-23774.41
2022-09-14T06:51:46.485Z,-23775.50
2022-09-14T06:53:50.365Z,-23775.66
2022-09-14T06:55:53.963Z,-23774.09
2022-09-14T06:57:57.974Z,-23780.06
2022-09-14T07:00:00.562Z,-23779.13
2022-09-14T07:02:03.595Z,-23784.00
2022-09-14T07:04:06.880Z,-23784.00
2022-09-14T07:06:11.529Z,-23783.53
2022-09-14T07:08:14.134Z,-23781.19
2022-09-14T07:10:16.839Z,-23785.56
2022-09-14T07:12:19.454Z,-23787.28
2022-09-14T07:14:23.686Z,-23787.63
2022-09-14T07:16:26.303Z,-23787.28
2022-09-14T07:18:32.780Z,-23795.78
2022-09-14T07:20:35.635Z,-23801.09
2022-09-14T07:22:38.310Z,-23809.28
2022-09-14T07:24:41.138Z,-23804.72
2022-09-14T07:26:43.904Z,-23805.66
2022-09-14T07:28:48.923Z,-23798.13
2022-09-14T07:30:57.049Z,-23795.63
2022-09-14T07:33:01.486Z,-23800.63
2022-09-14T07:35:05.145Z,-23803.63
2022-09-14T07:37:07.753Z,-23812.41
2022-09-14T07:39:12.418Z,-23814.59
2022-09-14T07:41:15.122Z,-23818.53
2022-09-14T07:43:17.769Z,-23823.38
2022-09-14T07:45:20.459Z,-23822.75
2022-09-14T07:47:24.407Z,-23830.75
2022-09-14T07:49:27.118Z,-23828.09
2022-09-14T07:51:30.991Z,-23837.81
2022-09-14T07:53:36.161Z,-23845.19
2022-09-14T07:55:39.579Z,-23849.41
2022-09-14T07:57:55.655Z,-23867.41
2022-09-14T07:59:59.910Z,-23875.56
2022-09-14T08:02:02.892Z,-23875.72
2022-09-14T08:04:07.866Z,-23869.63
2022-09-14T08:06:13.029Z,-23853.16
2022-09-14T08:08:15.701Z,-23843.44
2022-09-14T08:10:18.321Z,-23860.06
2022-09-14T08:12:20.955Z,-23852.06
2022-09-14T08:14:23.668Z,-23866.63
2022-09-14T08:16:27.848Z,-23876.97
2022-09-14T08:18:31.801Z,-23869.13
2022-09-14T08:20:36.384Z,-23868.34
2022-09-14T08:22:39.621Z,-23869.94
2022-09-14T08:24:42.464Z,-23876.34
2022-09-14T08:26:45.978Z,-23866.63
2022-09-14T08:28:50.519Z,-23863.34
2022-09-14T08:30:53.745Z,-23859.44
2022-09-14T08:32:58.949Z,-23857.88
2022-09-14T08:35:04.855Z,-23859.44
2022-09-14T08:37:10.697Z,-23862.56
2022-09-14T08:39:15.340Z,-23869.13
2022-09-14T08:41:27.121Z,-23887.63
2022-09-14T08:43:29.817Z,-23868.84
2022-09-14T08:45:32.517Z,-23865.06
2022-09-14T08:47:38.932Z,-23872.28
2022-09-14T08:49:47.437Z,-23871.34
2022-09-14T08:51:51.884Z,-23876.34
2022-09-14T08:53:59.359Z,-23882.28
2022-09-14T08:56:07.814Z,-23887.31
2022-09-14T08:58:24.244Z,-23895.44
2022-09-14T09:00:35.258Z,-23903.09
2022-09-14T09:02:51.017Z,-23908.56
2022-09-14T09:04:57.595Z,-23919.50
2022-09-14T09:07:08.743Z,-23937.47
2022-09-14T09:09:19.021Z,-23933.72
2022-09-14T09:11:25.228Z,-23964.63
2022-09-14T09:13:32.082Z,-23979.44
2022-09-14T09:15:38.291Z,-23954.50
2022-09-14T09:17:45.624Z,-23970.72
2022-09-14T09:19:57.624Z,-23995.66
2022-09-14T09:22:01.145Z,-24013.44
2022-09-14T09:24:16.949Z,-24018.09
2022-09-14T09:26:27.247Z,-24020.91
2022-09-14T09:28:31.029Z,-24052.31
2022-09-14T09:30:33.771Z,-24026.34
2022-09-14T09:32:38.287Z,-24003.16
2022-09-14T09:34:40.912Z,-24015.13
2022-09-14T09:36:47.667Z,-24021.22
2022-09-14T09:38:50.504Z,-24024.78
2022-09-14T09:40:55.870Z,-24018.41
2022-09-14T09:43:10.985Z,-24012.34
2022-09-14T09:45:13.644Z,-24042.06
2022-09-14T09:47:16.446Z,-24006.25
2022-09-14T09:49:23.852Z,-24027.44
2022-09-14T09:51:31.848Z,-23988.81
2022-09-14T09:53:37.831Z,-23996.28
2022-09-14T09:55:41.017Z,-24015.44
2022-09-14T09:57:43.657Z,-24007.50
2022-09-14T09:59:48.522Z,-24021.53
2022-09-14T10:01:52.283Z,-24002.22
2022-09-14T10:04:04.801Z,-24000.66
2022-09-14T10:06:10.195Z,-23996.28
2022-09-14T10:08:19.012Z,-23986.31
2022-09-14T10:10:26.750Z,-23957.31
2022-09-14T10:12:30.815Z,-23979.16
2022-09-14T10:14:34.799Z,-24003.47
2022-09-14T10:16:41.175Z,-23999.09
2022-09-14T10:18:48.986Z,-23955.13
2022-09-14T10:21:09.875Z,-23976.03
2022-09-14T10:23:26.348Z,-23955.13
2022-09-14T10:25:29.157Z,-23941.84
2022-09-14T10:27:40.678Z,-23940.75
2022-09-14T10:29:45.415Z,-23944.97
2022-09-14T10:31:51.063Z,-23951.84
2022-09-14T10:33:56.686Z,-23952.47
2022-09-14T10:36:10.384Z,-23943.25
2022-09-14T10:38:30.002Z,-23954.81
2022-09-14T10:40:37.658Z,-23947.31
2022-09-14T10:42:43.288Z,-23966.03
2022-09-14T10:45:05.704Z,-23944.66
2022-09-14T10:47:22.999Z,-23951.69
2022-09-14T10:49:41.081Z,-23937.94
2022-09-14T10:51:52.890Z,-23945.75
2022-09-14T10:54:02.312Z,-23932.63
2022-09-14T10:56:10.211Z,-23937.31
2022-09-14T10:58:25.249Z,-23927.47
2022-09-14T11:00:31.115Z,-23937.94
2022-09-14T11:03:09.158Z,-23951.38
2022-09-14T11:05:21.464Z,-23944.19
2022-09-14T11:07:33.711Z,-23947.00
2022-09-14T11:09:43.180Z,-23955.44
2022-09-14T11:11:54.840Z,-23957.00
2022-09-14T11:14:07.979Z,-23970.25
2022-09-14T11:16:24.635Z,-23964.31
2022-09-14T11:18:35.184Z,-23973.84
2022-09-14T11:20:47.827Z,-23978.84
2022-09-14T11:23:00.285Z,-23987.88
2022-09-14T11:25:11.374Z,-23987.25
2022-09-14T11:27:27.099Z,-23995.50
2022-09-14T11:29:33.969Z,-24004.41
2022-09-14T11:31:41.711Z,-23978.69
2022-09-14T11:33:53.808Z,-23980.06
2022-09-14T11:35:59.433Z,-23982.56
2022-09-14T11:38:08.583Z,-23981.47
2022-09-14T11:40:20.870Z,-23991.00
2022-09-14T11:42:27.241Z,-23978.22
2022-09-14T11:44:34.351Z,-23982.25
2022-09-14T11:46:40.480Z,-23994.13
2022-09-14T11:48:50.594Z,-24008.59
2022-09-14T11:50:58.553Z,-23990.69
2022-09-14T11:53:09.796Z,-23985.06
2022-09-14T11:55:18.078Z,-23982.25
2022-09-14T11:57:23.928Z,-23981.00
2022-09-14T11:59:36.241Z,-23967.44
2022-09-14T12:01:40.215Z,-23962.59
2022-09-14T12:03:54.498Z,-23959.81
2022-09-14T12:06:17.274Z,-23962.94
2022-09-14T12:08:39.629Z,-23959.97
2022-09-14T12:11:04.393Z,-23956.69
2022-09-14T12:13:20.965Z,-23955.44
2022-09-14T12:15:34.628Z,-23955.13
2022-09-14T12:17:40.359Z,-23952.00
2022-09-14T12:19:44.467Z,-23954.03
2022-09-14T12:21:47.214Z,-23959.50
2022-09-14T12:23:57.062Z,-23949.19
2022-09-14T12:26:04.277Z,-23950.44
2022-09-14T12:28:29.506Z,-23946.53
2022-09-14T12:30:55.747Z,-23949.81
2022-09-14T12:32:58.409Z,-23943.25
2022-09-14T12:35:38.746Z,-23947.47
2022-09-14T12:37:42.088Z,-23938.25
2022-09-14T12:40:18.407Z,-23934.81
2022-09-14T12:42:32.041Z,-23924.84
2022-09-14T12:44:38.442Z,-23921.84
2022-09-14T12:46:41.283Z,-23909.34
2022-09-14T12:49:02.632Z,-23903.25
2022-09-14T12:51:06.558Z,-23900.13
2022-09-14T12:53:22.452Z,-23890.75
2022-09-14T12:55:40.865Z,-23876.34
2022-09-14T12:57:52.490Z,-23868.22
2022-09-14T13:00:04.614Z,-23851.44
2022-09-14T13:02:41.645Z,-23843.44
2022-09-14T13:04:45.747Z,-23833.44
2022-09-14T13:06:49.534Z,-23824.31
2022-09-14T13:08:56.637Z,-23827.94
2022-09-14T13:10:59.325Z,-23822.75
2022-09-14T13:13:06.436Z,-23824.16
2022-09-14T13:15:19.232Z,-23819.31
2022-09-14T13:17:22.890Z,-23809.91
2022-09-14T13:19:28.711Z,-23813.81
2022-09-14T13:21:31.833Z,-23811.31
2022-09-14T13:23:40.490Z,-23810.22
2022-09-14T13:25:43.107Z,-23812.09
2022-09-14T13:27:50.332Z,-23806.13
2022-09-14T13:30:02.393Z,-23808.66
2022-09-14T13:32:05.180Z,-23803.94
2022-09-14T13:34:08.040Z,-23807.22
2022-09-14T13:36:10.819Z,-23802.69
2022-09-14T13:38:18.316Z,-23808.97
2022-09-14T13:40:24.649Z,-23805.50
2022-09-14T13:42:27.312Z,-23803.31
2022-09-14T13:44:32.683Z,-23799.53
2022-09-14T13:46:37.287Z,-23801.28
2022-09-14T13:48:42.611Z,-23798.28
2022-09-14T13:50:48.621Z,-23797.66
2022-09-14T13:53:01.662Z,-23792.31
2022-09-14T13:55:18.594Z,-23799.06
2022-09-14T13:57:24.177Z,-23795.78
2022-09-14T13:59:26.803Z,-23801.41
2022-09-14T14:01:30.548Z,-23793.88
2022-09-14T14:03:37.738Z,-23796.88
2022-09-14T14:05:43.596Z,-23794.84
2022-09-14T14:07:46.901Z,-23798.59
2022-09-14T14:09:52.497Z,-23795.78
2022-09-14T14:11:56.285Z,-23794.84
2022-09-14T14:14:15.062Z,-23793.25
2022-09-14T14:16:20.086Z,-23796.72
2022-09-14T14:18:44.369Z,-23795.63
2022-09-14T14:20:46.988Z,-23792.31
2022-09-14T14:23:00.526Z,-23795.16
2022-09-14T14:25:19.715Z,-23799.84
2022-09-14T14:27:32.022Z,-23793.72
2022-09-14T14:29:34.511Z,-23799.22
2022-09-14T14:31:37.149Z,-23792.94
2022-09-14T14:33:47.564Z,-23792.63
2022-09-14T14:35:53.503Z,-23795.78
2022-09-14T14:37:56.731Z,-23794.38
2022-09-14T14:39:59.427Z,-23798.59
2022-09-14T14:42:03.229Z,-23795.78
2022-09-14T14:44:07.429Z,-23792.63
2022-09-14T14:46:10.581Z,-23794.19
2022-09-14T14:48:13.702Z,-23792.31
2022-09-14T14:50:19.367Z,-23790.44
2022-09-14T14:52:21.993Z,-23790.59
2022-09-14T14:54:24.635Z,-23790.28
2022-09-14T14:56:28.136Z,-23792.94
2022-09-14T14:58:36.129Z,-23788.88
2022-09-14T15:00:39.380Z,-23781.00
2022-09-14T15:02:42.234Z,-23779.44
2022-09-14T15:04:44.830Z,-23781.34
2022-09-14T15:06:49.160Z,-23767.19
2022-09-14T15:08:54.296Z,-23770.50
2022-09-14T15:10:58.066Z,-23770.50
2022-09-14T15:13:00.686Z,-23770.00
2022-09-14T15:15:04.853Z,-23769.38
2022-09-14T15:17:07.442Z,-23765.16
2022-09-14T15:19:10.580Z,-23766.09
2022-09-14T15:21:13.189Z,-23767.81
2022-09-14T15:23:17.129Z,-23763.09
2022-09-14T15:25:21.164Z,-23767.03
2022-09-14T15:27:23.882Z,-23763.88
2022-09-14T15:29:26.513Z,-23770.34
2022-09-14T15:31:29.705Z,-23776.00
2022-09-14T15:33:32.445Z,-23775.03
2022-09-14T15:35:35.079Z,-23776.13
2022-09-14T15:37:37.718Z,-23778.81
2022-09-14T15:39:46.074Z,-23782.75
2022-09-14T15:41:51.375Z,-23779.44
2022-09-14T15:43:53.932Z,-23776.94
2022-09-14T15:45:56.632Z,-23774.72
2022-09-14T15:47:59.294Z,-23778.81
2022-09-14T15:50:01.913Z,-23775.81
2022-09-14T15:52:04.948Z,-23776.63
2022-09-14T15:54:07.554Z,-23774.88
2022-09-14T15:56:12.850Z,-23776.13
2022-09-14T15:58:15.506Z,-23773.78
2022-09-14T16:00:19.444Z,-23780.69
2022-09-14T16:02:22.092Z,-23782.13
2022-09-14T16:04:24.918Z,-23781.97
2022-09-14T16:06:28.756Z,-23776.78
2022-09-14T16:08:31.671Z,-23778.81
2022-09-14T16:10:34.506Z,-23777.88
2022-09-14T16:12:38.481Z,-23774.56
2022-09-14T16:14:41.206Z,-23776.94
2022-09-14T16:16:43.879Z,-23772.69
2022-09-14T16:18:47.111Z,-23766.25
2022-09-14T16:20:49.701Z,-23764.03
2022-09-14T16:22:52.438Z,-23762.94
2022-09-14T16:24:55.028Z,-23763.75
2022-09-14T16:26:58.756Z,-23759.66
2022-09-14T16:29:03.321Z,-23759.19
2022-09-14T16:31:08.025Z,-23760.13
2022-09-14T16:33:10.637Z,-23757.44
2022-09-14T16:35:13.241Z,-23759.66
2022-09-14T16:37:16.760Z,-23761.22
2022-09-14T16:39:22.406Z,-23761.38
2022-09-14T16:41:25.453Z,-23762.00
2022-09-14T16:43:29.944Z,-23762.16
2022-09-14T16:45:33.969Z,-23758.72
2022-09-14T16:47:37.519Z,-23761.38
2022-09-14T16:49:40.276Z,-23761.22
2022-09-14T16:51:43.392Z,-23763.75
2022-09-14T16:53:47.370Z,-23760.13
2022-09-14T16:55:49.986Z,-23762.63
2022-09-14T16:57:52.620Z,-23761.69
2022-09-14T16:59:55.459Z,-23764.38
2022-09-14T17:01:59.734Z,-23762.00
2022-09-14T17:04:08.177Z,-23759.34
2022-09-14T17:06:13.878Z,-23763.88
2022-09-14T17:08:16.520Z,-23762.47
2022-09-14T17:10:19.135Z,-23760.44
2022-09-14T17:12:21.708Z,-23759.81
2022-09-14T17:14:26.980Z,-23759.34
2022-09-14T17:16:30.566Z,-23760.44
2022-09-14T17:18:36.154Z,-23761.38
2022-09-14T17:20:38.711Z,-23762.78
2022-09-14T17:22:41.354Z,-23761.53
2022-09-14T17:24:43.979Z,-23759.81
2022-09-14T17:26:47.672Z,-23760.44
2022-09-14T17:28:52.011Z,-23762.00
2022-09-14T17:30:56.564Z,-23759.66
2022-09-14T17:32:59.162Z,-23759.19
2022-09-14T17:35:03.659Z,-23760.28
2022-09-14T17:37:06.504Z,-23760.13
2022-09-14T17:39:11.971Z,-23759.66
2022-09-14T17:41:17.870Z,-23757.13
2022-09-14T17:43:21.178Z,-23755.56
2022-09-14T17:45:23.776Z,-23756.81
2022-09-14T17:47:26.399Z,-23755.72
2022-09-14T17:49:29.047Z,-23757.28
2022-09-14T17:51:36.286Z,-23756.19
2022-09-14T17:53:40.004Z,-23753.38
2022-09-14T17:55:43.200Z,-23751.94
2022-09-14T17:57:46.167Z,-23750.53
2022-09-14T17:59:49.043Z,-23754.63
2022-09-14T18:01:51.641Z,-23753.03
2022-09-14T18:03:57.078Z,-23752.72
2022-09-14T18:05:59.741Z,-23751.94
2022-09-14T18:08:03.953Z,-23752.09
2022-09-14T18:10:07.401Z,-23751.16
2022-09-14T18:12:10.335Z,-23751.16
2022-09-14T18:14:14.297Z,-23752.56
2022-09-14T18:16:18.993Z,-23752.09
2022-09-14T18:18:21.617Z,-23753.38
2022-09-14T18:20:24.189Z,-23752.41
2022-09-14T18:22:27.174Z,-23752.56
2022-09-14T18:24:31.279Z,-23751.78
2022-09-14T18:26:34.172Z,-23750.53
2022-09-14T18:28:37.357Z,-23751.78
2022-09-14T18:30:43.497Z,-23752.41
2022-09-14T18:32:47.001Z,-23756.50
2022-09-14T18:34:49.623Z,-23755.25
2022-09-14T18:36:52.657Z,-23756.81
2022-09-14T18:38:55.343Z,-23757.59
2022-09-14T18:41:04.967Z,-23754.47
2022-09-14T18:43:07.586Z,-23752.41
2022-09-14T18:45:11.120Z,-23748.94
2022-09-14T18:47:13.744Z,-23748.94
2022-09-14T18:49:16.348Z,-23745.66
2022-09-14T18:51:18.960Z,-23747.84
2022-09-14T18:53:21.556Z,-23745.50
2022-09-14T18:55:24.748Z,-23741.72
2022-09-14T18:57:28.904Z,-23742.97
2022-09-14T18:59:31.484Z,-23740.31
2022-09-14T19:01:35.036Z,-23743.28
2022-09-14T19:03:39.205Z,-23741.88
2022-09-14T19:05:42.975Z,-23742.97
2022-09-14T19:07:45.712Z,-23746.28
2022-09-14T19:09:48.407Z,-23741.72
2022-09-14T19:11:51.043Z,-23744.88
2022-09-14T19:13:58.357Z,-23741.56
2022-09-14T19:16:07.240Z,-23742.66
2022-09-14T19:18:12.654Z,-23743.13
2022-09-14T19:20:15.552Z,-23742.97
2022-09-14T19:22:18.155Z,-23744.25
2022-09-14T19:24:20.956Z,-23744.56
2022-09-14T19:26:23.576Z,-23741.09
2022-09-14T19:28:26.173Z,-23741.56
2022-09-14T19:30:30.162Z,-23738.41
2022-09-14T19:32:32.764Z,-23737.63
2022-09-14T19:34:36.278Z,-23738.91
2022-09-14T19:36:38.856Z,-23738.25
2022-09-14T19:38:41.641Z,-23734.81
2022-09-14T19:40:51.867Z,-23733.84
2022-09-14T19:42:55.252Z,-23736.06
2022-09-14T19:44:57.908Z,-23733.56
2022-09-14T19:47:02.559Z,-23732.44
2022-09-14T19:49:05.438Z,-23732.75
2022-09-14T19:51:09.823Z,-23733.22
2022-09-14T19:53:12.930Z,-23731.34
2022-09-14T19:55:15.558Z,-23732.59
2022-09-14T19:57:18.164Z,-23734.66
2022-09-14T19:59:20.885Z,-23735.44
2022-09-14T20:01:25.491Z,-23735.44
2022-09-14T20:03:29.598Z,-23735.44
2022-09-14T20:05:32.214Z,-23734.19
2022-09-14T20:07:34.786Z,-23736.38
2022-09-14T20:09:38.362Z,-23737.16
2022-09-14T20:11:43.042Z,-23737.16
2022-09-14T20:13:45.833Z,-23738.56
2022-09-14T20:15:48.548Z,-23740.63
2022-09-14T20:17:55.258Z,-23742.03
2022-09-14T20:19:59.194Z,-23740.94
2022-09-14T20:22:01.761Z,-23741.88
2022-09-14T20:24:21.770Z,-23740.63
2022-09-14T20:26:25.922Z,-23741.72
2022-09-14T20:28:28.553Z,-23741.09
2022-09-14T20:30:31.204Z,-23741.56
2022-09-14T20:32:33.833Z,-23744.25
2022-09-14T20:34:36.408Z,-23745.81
2022-09-14T20:36:41.239Z,-23747.38
2022-09-14T20:38:49.644Z,-23747.06
2022-09-14T20:40:56.681Z,-23745.50
2022-09-14T20:42:59.319Z,-23745.81
2022-09-14T20:45:01.923Z,-23745.81
2022-09-14T20:47:04.594Z,-23743.59
2022-09-14T20:49:10.080Z,-23743.28
2022-09-14T20:51:16.081Z,-23742.34
2022-09-14T20:53:22.616Z,-23743.13
2022-09-14T20:55:25.917Z,-23744.72
2022-09-14T20:57:28.508Z,-23744.56
2022-09-14T20:59:31.405Z,-23742.03
2022-09-14T21:01:38.839Z,-23744.56
2022-09-14T21:03:42.882Z,-23745.81
2022-09-14T21:05:46.338Z,-23746.44
2022-09-14T21:07:56.144Z,-23745.34
2022-09-14T21:10:00.429Z,-23745.81
2022-09-14T21:12:03.525Z,-23743.59
2022-09-14T21:14:06.950Z,-23743.91
2022-09-14T21:16:11.518Z,-23744.09
2022-09-14T21:18:17.563Z,-23742.97
2022-09-14T21:20:22.629Z,-23742.97
2022-09-14T21:22:25.198Z,-23742.66
2022-09-14T21:24:27.821Z,-23742.03
2022-09-14T21:26:34.031Z,-23744.88
2022-09-14T21:28:38.632Z,-23742.66
2022-09-14T21:30:41.220Z,-23741.09
2022-09-14T21:32:48.231Z,-23740.63
2022-09-14T21:34:50.927Z,-23742.66
2022-09-14T21:36:53.950Z,-23744.72
2022-09-14T21:38:57.975Z,-23745.97
2022-09-14T21:41:00.834Z,-23745.66
2022-09-14T21:43:04.807Z,-23745.97
2022-09-14T21:45:08.197Z,-23743.78
2022-09-14T21:47:10.812Z,-23746.44
2022-09-14T21:49:15.801Z,-23743.78
2022-09-14T21:51:19.891Z,-23742.66
2022-09-14T21:53:22.482Z,-23745.34
2022-09-14T21:55:25.162Z,-23746.44
2022-09-14T21:57:27.744Z,-23746.13
2022-09-14T21:59:31.673Z,-23748.00
2022-09-14T22:01:34.680Z,-23746.44
2022-09-14T22:03:37.832Z,-23743.13
2022-09-14T22:05:40.631Z,-23742.81
2022-09-14T22:07:43.934Z,-23743.91
2022-09-14T22:09:46.569Z,-23740.47
2022-09-14T22:11:49.318Z,-23740.16
2022-09-14T22:13:54.986Z,-23739.53
2022-09-14T22:15:59.089Z,-23736.38
2022-09-14T22:18:02.475Z,-23735.75
2022-09-14T22:20:05.668Z,-23731.97
2022-09-14T22:22:08.441Z,-23730.09
2022-09-14T22:24:13.220Z,-23731.81
2022-09-14T22:26:16.547Z,-23731.34
2022-09-14T22:28:19.235Z,-23733.22
2022-09-14T22:30:22.099Z,-23730.88
2022-09-14T22:32:26.062Z,-23730.09
2022-09-14T22:34:29.635Z,-23731.66
2022-09-14T22:36:32.489Z,-23727.88
2022-09-14T22:38:35.682Z,-23728.19
2022-09-14T22:40:38.391Z,-23729.13
2022-09-14T22:42:40.995Z,-23733.69
2022-09-14T22:44:43.554Z,-23730.72
2022-09-14T22:46:46.470Z,-23730.25
2022-09-14T22:48:51.267Z,-23731.34
2022-09-14T22:50:57.459Z,-23734.31
2022-09-14T22:53:00.022Z,-23732.28
2022-09-14T22:55:02.632Z,-23731.97
2022-09-14T22:57:05.247Z,-23729.47
2022-09-14T22:59:10.408Z,-23727.88
2022-09-14T23:01:16.234Z,-23729.47
2022-09-14T23:03:19.415Z,-23730.41
2022-09-14T23:05:23.354Z,-23732.59
2022-09-14T23:07:25.983Z,-23732.91
2022-09-14T23:09:28.646Z,-23737.00
2022-09-14T23:11:31.661Z,-23735.13
2022-09-14T23:13:36.589Z,-23734.19
2022-09-14T23:15:39.817Z,-23737.31
2022-09-14T23:17:42.398Z,-23736.06
2022-09-14T23:19:44.938Z,-23736.53
2022-09-14T23:21:48.874Z,-23734.03
2022-09-14T23:23:52.919Z,-23738.91
2022-09-14T23:25:55.766Z,-23738.25
2022-09-14T23:27:58.356Z,-23735.44
2022-09-14T23:30:00.963Z,-23734.31
2022-09-14T23:32:04.029Z,-23731.97
2022-09-14T23:34:06.874Z,-23731.34
2022-09-14T23:36:09.643Z,-23731.03
2022-09-14T23:38:13.588Z,-23731.97
2022-09-14T23:40:18.249Z,-23731.34
2022-09-14T23:42:20.900Z,-23731.19
2022-09-14T23:44:23.731Z,-23729.78
2022-09-14T23:46:26.693Z,-23730.09
2022-09-14T23:48:29.439Z,-23730.56
2022-09-14T23:50:32.052Z,-23724.72
2022-09-14T23:52:34.621Z,-23725.38